HOURLY OBS INDEX

014

Northern Rivers

BATCHELOR AIRPORT

Site: 014272
Alt: 104.0m
1km SSW of BATCHELOR


  Time     Wind        Temp  DP   Baro     Rain since   Rain past  Vis(m), Cloud(base in m), Weather
  local        km/h                         9am  last   hr   10m    
Thu 14:30  WSW  9/ 19  32.4 23.4  1004.2    0.0   0.0   0.0   0.0   ----- 
Thu 15:00  WSW  9/ 17  32.8 22.9  1004.0    0.0   0.0   0.0   0.0   ----- 
Thu 15:30   SW 11/ 19  32.8 22.9  1003.7    0.0   0.0   0.0   0.0   ----- 
Thu 16:00  WSW 11/ 19  33.5 22.9  1003.1    0.0   0.0   0.0   0.0   ----- 
Thu 16:30    W 11/ 17  33.4 22.8  1002.9    0.0   0.0   0.0   0.0   ----- 
Thu 17:00  WSW  9/ 15  33.3 23.3  1002.7    0.0   0.0   0.0   0.0   ----- 
Thu 17:30    W  9/ 19  32.4 23.4  1003.2    0.0   0.0   0.0   0.0   ----- 
Thu 17:30    W  9/ 19  32.4 23.4  1003.2    0.0   0.0  ----   0.0   ----- 
Thu 18:00    W 11/ 19  31.4 23.5  1004.0    0.0   0.0   0.0   0.0   ----- 
Thu 18:30    W  7/ 13  30.9 24.1  1004.3    0.0   0.0   0.0   0.0   ----- 
Thu 19:00  WNW  7/ 11  30.6 24.3  1004.5    0.0   0.0   0.0   0.0   ----- 
Thu 19:30  WNW  9/ 15  30.2 24.4  1004.9    0.0   0.0   0.0   0.0   ----- 
Thu 19:30  WNW  9/ 15  30.2 24.4  1004.9    0.0   0.0  ----   0.0   ----- 
Thu 19:30  WNW  9/ 15  30.2 24.4  1004.9    0.0   0.0  ----   0.0   ----- 
Thu 20:00  WSW 13/ 26  30.0 23.4  1005.9    0.0   0.0   0.0   0.0   ----- 

BORROLOOLA AIRPORT

Site: 014723
Alt: 16.1m
1km SSE of BORROLOOLA


  Time     Wind        Temp  DP   Baro     Rain since   Rain past  Vis(m), Cloud(base in m), Weather
  local        km/h                         9am  last   hr   10m    
Thu 14:30   SE 17/ 24  24.9 23.9  1002.0    9.6   0.6   1.8   0.4   ----- 
Thu 15:00   SE 24/ 35  24.5 23.5  1001.6   11.8   2.2   2.8   0.8   ----- 
Thu 15:30   SE 22/ 32  24.8 23.4  1001.3   11.8   0.0   2.2   0.0   ----- 
Thu 16:00  ESE 15/ 20  24.9 23.5  1001.2   12.6   0.8   0.8   0.2   ----- 
Thu 16:30   SE 19/ 26  24.9 23.5  1001.6   13.0   0.4   1.2   0.2   ----- 
Thu 17:00  SSE 20/ 28  25.3 23.7  1001.6   13.0   0.0   0.4   0.0   ----- 
Thu 17:30   SE 24/ 32  25.4 23.6  1001.3   13.2   0.2   0.2   0.2   ----- 
Thu 17:30   SE 24/ 32  25.4 23.6  1001.3   13.2   0.0  ----   0.2   ----- 
Thu 18:00   SE 22/ 30  25.4 23.8  1000.7   13.4   0.2   0.4   0.0   ----- 
Thu 18:30   SE 24/ 35  25.6 23.7  1000.2   13.6   0.2   0.4   0.0   ----- 
Thu 19:00   SE 24/ 35  25.7 23.4  1000.7   13.6   0.0   0.2   0.0   ----- 
Thu 19:30   SE 24/ 35  25.7 23.2  1001.4   13.6   0.0   0.0   0.0   ----- 
Thu 19:30   SE 24/ 35  25.7 23.2  1001.4   13.6   0.0  ----   0.0   ----- 
Thu 19:30   SE 24/ 35  25.7 23.2  1001.4   13.6   0.0  ----   0.0   ----- 
Thu 20:00  SSE 30/ 43  26.0 22.9  1002.0   13.6   0.0   0.0   0.0   ----- 

BRADSHAW

Site: 014954
Alt: 75.0m
133km S of NAUIYU (DALY RIVER)


  Time     Wind        Temp  DP   Baro     Rain since   Rain past  Vis(m), Cloud(base in m), Weather
  local        km/h                         9am  last   hr   10m    
Thu 14:30    W 22/ 37  34.1 24.6  1004.0    0.2   0.0   0.0   0.0   ----- 
Thu 15:00    W 22/ 33  34.8 25.3  1003.4    0.2   0.0   0.0   0.0   ----- 
Thu 15:30  WNW 20/ 33  35.1 25.0  1002.9    0.2   0.0   0.0   0.0   ----- 
Thu 16:00  WNW 22/ 35  35.0 24.3  1002.3    0.2   0.0   0.0   0.0   ----- 
Thu 16:30  WNW 24/ 35  35.0 24.9  1001.9    0.2   0.0   0.0   0.0   ----- 
Thu 17:00  WNW 20/ 32  34.9 25.1  1002.6    0.2   0.0   0.0   0.0   ----- 
Thu 17:30  WNW 20/ 30  34.4 24.6  1003.2    0.2   0.0   0.0   0.0   ----- 
Thu 17:30  WNW 20/ 30  34.4 24.6  1003.2    0.2   0.0  ----   0.0   ----- 
Thu 18:00  WNW 17/ 24  34.1 24.4  1003.2    0.2   0.0   0.0   0.0   ----- 
Thu 18:30  WNW 13/ 24  34.0 24.8  1003.3    0.2   0.0   0.0   0.0   ----- 
Thu 19:00  WNW 11/ 17  33.3 25.0  1004.0    0.2   0.0   0.0   0.0   ----- 
Thu 19:30    N  9/ 13  33.0 25.3  1005.0    0.2   0.0   0.0   0.0   ----- 
Thu 19:30    N  9/ 13  33.0 25.3  1005.0    0.2   0.0  ----   0.0   ----- 
Thu 19:30    N  9/ 13  33.0 25.3  1005.0    0.2   0.0  ----   0.0   ----- 
Thu 20:00    N 15/ 20  32.8 25.1  1005.0    0.2   0.0   0.0   0.0   ----- 

BRADSHAW-ANGALLARI VALLEY (DEFENCE)

Site: 014808
Alt: 60.0m
183km ENE of KUNUNURRA


  Time     Wind        Temp  DP   Baro     Rain since   Rain past  Vis(m), Cloud(base in m), Weather
  local        km/h                         9am  last   hr   10m    
Thu 14:30    W 15/ 24  34.9 23.9  1003.3   ----  ----  ----   0.0   ----- 
Thu 15:00    W 17/ 30  34.8 23.5  1002.8   ----  ----  ----   0.0   ----- 
Thu 15:30  WSW 19/ 33  35.6 23.6  1002.4   ----  ----  ----   0.0   ----- 
Thu 16:00    W 17/ 28  35.8 23.4  1001.9   ----  ----  ----   0.0   ----- 
Thu 16:30  WNW 19/ 32  34.5 23.8  1001.3   ----  ----  ----   0.0   ----- 
Thu 17:00    W 17/ 26  34.6 24.2  1001.8   ----  ----  ----   0.0   ----- 
Thu 17:30  WNW 13/ 19  34.4 24.3  1002.3   ----  ----  ----   0.0   ----- 
Thu 17:30  WNW 13/ 19  34.4 24.3  1002.3   ----  ----  ----   0.0   ----- 
Thu 18:00   NW 11/ 17  34.6 23.9  1002.7   ----  ----  ----   0.0   ----- 
Thu 18:30  WNW  9/ 15  34.3 24.3  1002.5   ----  ----  ----   0.0   ----- 
Thu 19:00  NNW  6/  7  33.7 24.3  1002.5   ----  ----  ----   0.0   ----- 
Thu 19:30    N  6/  7  33.3 24.2  1003.4   ----  ----  ----   0.0   ----- 
Thu 19:30    N  6/  7  33.3 24.2  1003.4   ----  ----  ----   0.0   ----- 
Thu 19:30    N  6/  7  33.3 24.2  1003.4   ----  ----  ----   0.0   ----- 
Thu 20:00    N  6/  9  32.8 24.3  1003.4   ----  ----  ----   0.0   ----- 

BRADSHAW-KOOLENDONG VALLEY (DEFENCE)

Site: 014981
Alt: 59.0m
211km SW of KATHERINE


  Time     Wind        Temp  DP   Baro     Rain since   Rain past  Vis(m), Cloud(base in m), Weather
  local        km/h                         9am  last   hr   10m    
Thu 14:30    W 17/ 32  33.2 25.5  1005.1    0.0   0.0   0.0   0.0   ----- 
Thu 15:00    W 15/ 24  34.0 24.8  1004.9    0.0   0.0   0.0   0.0   ----- 
Thu 15:30  WNW  7/ 17  34.4 25.5  1004.3    0.0   0.0   0.0   0.0   ----- 
Thu 16:00  WNW  9/ 19  33.6 25.3  1003.8    0.0   0.0   0.0   0.0   ----- 
Thu 16:30  WNW  9/ 20  33.8 25.8  1003.6    0.0   0.0   0.0   0.0   ----- 
Thu 17:00  WNW  9/ 17  33.3 25.3  1003.5    0.0   0.0   0.0   0.0   ----- 
Thu 17:30  WNW  6/ 11  33.8 26.0  1003.9    0.0   0.0   0.0   0.0   ----- 
Thu 17:30  WNW  6/ 11  33.8 26.0  1003.9    0.0   0.0  ----   0.0   ----- 
Thu 18:00  NNW  9/ 17  33.0 26.3  1004.8    0.0   0.0   0.0   0.0   ----- 
Thu 18:30  NNW  7/ 17  32.2 26.0  1004.7    0.0   0.0   0.0   0.0   ----- 
Thu 19:00  NNW  7/ 13  31.6 25.9  1004.3    0.0   0.0   0.0   0.0   ----- 
Thu 19:30  NNW  9/ 17  31.2 26.0  1004.9    0.0   0.0   0.0   0.0   ----- 
Thu 19:30  NNW  9/ 17  31.2 26.0  1004.9    0.0   0.0  ----   0.0   ----- 
Thu 19:30  NNW  9/ 17  31.2 26.0  1004.9    0.0   0.0  ----   0.0   ----- 
Thu 20:00    N  4/ 15  30.9 25.7  1005.6    0.0   0.0   0.0   0.0   ----- 

BULMAN

Site: 014627
Alt: 103.4m
192km SE of JABIRU


  Time     Wind        Temp  DP   Baro     Rain since   Rain past  Vis(m), Cloud(base in m), Weather
  local        km/h                         9am  last   hr   10m    
Thu 14:30    W 11/ 20  34.6 22.0  1002.9    0.0   0.0   0.0   0.0   ----- 
Thu 15:00    W  7/ 17  35.1 20.2  1002.2    0.0   0.0   0.0   0.0   ----- 
Thu 15:30  WNW 13/ 24  36.3 21.3  1001.9    0.0   0.0   0.0   0.0   ----- 
Thu 16:00  WNW 15/ 22  35.5 18.6  1001.2    0.0   0.0   0.0   0.0   ----- 
Thu 16:30   NW 11/ 19  35.7 20.8  1001.2    0.0   0.0   0.0   0.0   ----- 
Thu 17:00   NW  6/  9  35.4 20.9  1001.4    0.0   0.0   0.0   0.0   ----- 
Thu 17:30    C  0/  6  34.5 22.2  1001.5    0.0   0.0   0.0   0.0   ----- 
Thu 17:30    C  0/  6  34.5 22.2  1001.5    0.0   0.0  ----   0.0   ----- 
Thu 17:42    S 28/ 46  28.8 21.6  1002.8    0.0   0.0  ----   0.0   ----- 
Thu 17:42    S 28/ 46  28.8 21.6  1002.8    0.0   0.0  ----   0.0   ----- 
Thu 17:42    S 28/ 46  28.8 21.6  1002.8    0.0   0.0  ----   0.0   ----- 
Thu 17:42    S 28/ 46  28.8 21.6  1002.8    0.0   0.0  ----   0.0   ----- 
Thu 17:57  SSW 30/ 50  25.4 23.6  1004.8    9.4   9.4  ----   7.6   ----- 
Thu 18:00  SSW 28/ 50  25.0 22.9  1005.1   13.6   4.2  13.6  10.4   ----- 
Thu 18:30    W 13/ 28  25.1 23.2  1004.7   25.2  11.6  25.2   0.0   ----- 
Thu 19:00  NNW 17/ 24  24.2 22.5  1004.3   25.4   0.2  11.8   0.0   ----- 
Thu 19:30   NW 11/ 17  24.1 22.4  1004.9   25.6   0.2   0.4   0.0   ----- 
Thu 19:30   NW 11/ 17  24.1 22.4  1004.9   25.6   0.0  ----   0.0   ----- 
Thu 19:30   NW 11/ 17  24.1 22.4  1004.9   25.6   0.0  ----   0.0   ----- 
Thu 20:00    W 13/ 19  24.3 22.0  1004.7   26.2   0.6   0.8   0.4   ----- 

CENTRAL ARNHEM PLATEAU

Site: 014909
Alt: 416.0m
76km SSE of JABIRU


  Time     Wind        Temp  DP   Baro     Rain since   Rain past  Vis(m), Cloud(base in m), Weather
  local        km/h                         9am  last   hr   10m    
Thu 14:30    W 24/ 33  32.5 19.4  1006.3    0.0   0.0   0.0   0.0   ----- 
Thu 15:00  WNW 22/ 37  32.7 19.9  1005.7    0.0   0.0   0.0   0.0   ----- 
Thu 15:30  WNW 22/ 30  32.5 19.7  1005.2    0.0   0.0   0.0   0.0   ----- 
Thu 16:00    W 20/ 32  33.0 20.5  1004.7    0.0   0.0   0.0   0.0   ----- 
Thu 16:30    W 22/ 28  33.0 19.1  1004.4    0.0   0.0   0.0   0.0   ----- 
Thu 17:00    W 22/ 32  32.8 18.6  1004.6    0.0   0.0   0.0   0.0   ----- 
Thu 17:30  WNW 17/ 22  32.2 19.5  1005.1    0.0   0.0   0.0   0.0   ----- 
Thu 17:30  WNW 17/ 22  32.2 19.5  1005.1    0.0   0.0  ----   0.0   ----- 
Thu 18:00  WNW 19/ 28  31.6 20.2  1005.7    0.0   0.0   0.0   0.0   ----- 
Thu 18:30  WNW 17/ 20  31.2 20.5  1006.0    0.0   0.0   0.0   0.0   ----- 
Thu 19:00  WNW 11/ 17  31.0 19.7  1006.5    0.0   0.0   0.0   0.0   ----- 
Thu 19:18   SE 28/ 39  26.4 16.6  1008.0    0.0   0.0  ----   0.0   ----- 
Thu 19:30  ESE 32/ 43  25.0 18.4  1007.9    0.0   0.0   0.0   0.0   ----- 
Thu 19:30  ESE 32/ 43  25.0 18.4  1007.9    0.0   0.0  ----   0.0   ----- 
Thu 19:30  ESE 32/ 43  25.0 18.4  1007.9    0.0   0.0  ----   0.0   ----- 
Thu 20:00  ENE 11/ 15  24.6 19.0  1007.5    0.0   0.0   0.0   0.0   ----- 

CENTRE ISLAND

Site: 014703
Alt: 12.2m
66km ENE of BORROLOOLA


  Time     Wind        Temp  DP   Baro     Rain since   Rain past  Vis(m), Cloud(base in m), Weather
  local        km/h                         9am  last   hr   10m    
Thu 14:30  ESE 46/ 56  26.3 25.3  1001.0   54.6   0.4   0.4   0.0   ----- 
Thu 14:42    E 24/ 41  25.3 24.4  1001.3   60.6   6.0  ----   6.0   ----- 
Thu 14:49    E 28/ 50  26.1 25.2  1001.1   61.2   0.6  ----   3.6   ----- 
Thu 15:00    E 39/ 46  26.1 25.4  1000.8   61.2   0.0   7.0   0.0   ----- 
Thu 15:30    E 41/ 48  26.2 24.4  1000.5   61.2   0.0   6.6   0.0   ----- 
Thu 16:00  ESE 45/ 56  25.7 25.0  1000.7   67.6   6.4   6.4   0.4   ----- 
Thu 16:30  ESE 37/ 43  26.1 24.3  1000.1   67.8   0.2   6.6   0.0   ----- 
Thu 17:00  ESE 41/ 50  26.5 24.5  1000.0   67.8   0.0   0.2   0.0   ----- 
Thu 17:30  ESE 48/ 56  26.4 24.2   999.9   67.8   0.0   0.0   0.0   ----- 
Thu 17:30  ESE 48/ 56  26.4 24.2   999.9   67.8   0.0  ----   0.0   ----- 
Thu 18:00    E 43/ 56  25.8 24.8  1000.0   68.4   0.6   0.6   0.6   ----- 
Thu 18:30  ESE 45/ 52  27.5 24.1   999.1   68.4   0.0   0.6   0.0   ----- 
Thu 19:00  ESE 48/ 58  26.7 24.4   999.3   69.0   0.6   0.6   0.2   ----- 
Thu 19:30  ESE 52/ 61  26.8 24.6   999.3   69.0   0.0   0.6   0.0   ----- 
Thu 19:30  ESE 52/ 61  26.8 24.6   999.3   69.0   0.0  ----   0.0   ----- 
Thu 19:30  ESE 52/ 61  26.8 24.6   999.3   69.0   0.0  ----   0.0   ----- 
Thu 20:00  ESE 56/ 65  26.6 25.2   999.6   69.8   0.8   0.8   0.2   ----- 
Thu 20:20    E 56/ 74  26.5 25.8  1000.1   70.4   0.0   0.0   0.4   ----- 

CHARLES POINT

Site: 014031
Alt: 14.0m
24km WNW of DARWIN CBD


  Time     Wind        Temp  DP   Baro     Rain since   Rain past  Vis(m), Cloud(base in m), Weather
  local        km/h                         9am  last   hr   10m    
Thu 14:30    W 11/ 20  31.5 24.4  1003.8    0.0   0.0   0.0   0.0   ----- 
Thu 15:00    W 13/ 28  31.8 23.6  1003.9    0.0   0.0   0.0   0.0   ----- 
Thu 15:30    W 13/ 28  32.0 24.8  1003.7    0.0   0.0   0.0   0.0   ----- 
Thu 16:00  WSW  9/ 20  32.1 24.9  1003.3    0.0   0.0   0.0   0.0   ----- 
Thu 16:30  WSW 11/ 20  31.6 25.2  1003.4    0.0   0.0   0.0   0.0   ----- 
Thu 17:00    W 13/ 22  31.9 25.7  1003.2    0.0   0.0   0.0   0.0   ----- 
Thu 17:30    W 15/ 28  31.5 25.1  1003.2    0.0   0.0   0.0   0.0   ----- 
Thu 17:30    W 15/ 28  31.5 25.1  1003.2    0.0   0.0  ----   0.0   ----- 
Thu 18:00    W 15/ 26  31.3 24.7  1003.7    0.0   0.0   0.0   0.0   ----- 
Thu 18:30  WSW  7/ 15  30.7 25.1  1004.1    0.0   0.0   0.0   0.0   ----- 
Thu 19:00  WSW 11/ 19  30.4 25.0  1004.7    0.0   0.0   0.0   0.0   ----- 
Thu 19:30  WSW 13/ 24  30.2 24.4  1005.0    0.0   0.0   0.0   0.0   ----- 
Thu 19:30  WSW 13/ 24  30.2 24.4  1005.0    0.0   0.0  ----   0.0   ----- 
Thu 19:30  WSW 13/ 24  30.2 24.4  1005.0    0.0   0.0  ----   0.0   ----- 
Thu 20:00  WSW 11/ 32  30.1 24.5  1005.2    0.0   0.0   0.0   0.0   ----- 

CROKER ISLAND AIRPORT

Site: 014308
Alt: 9.2m
173km NNW of JABIRU


  Time     Wind        Temp  DP   Baro     Rain since   Rain past  Vis(m), Cloud(base in m), Weather
  local        km/h                         9am  last   hr   10m    
Thu 14:30  WNW 30/ 39  31.2 26.7  1004.6    0.2   0.0   0.0   0.0   ----- 
Thu 15:00  WNW 26/ 35  31.4 26.7  1004.1    0.2   0.0   0.0   0.0   ----- 
Thu 15:30  WNW 24/ 33  31.6 27.1  1004.0    0.2   0.0   0.0   0.0   ----- 
Thu 16:00  WNW 24/ 33  31.4 27.1  1003.8    0.2   0.0   0.0   0.0   ----- 
Thu 16:30  WNW 20/ 33  31.5 27.2  1003.8    0.2   0.0   0.0   0.0   ----- 
Thu 17:00  WNW 20/ 33  31.4 26.2  1003.8    0.2   0.0   0.0   0.0   ----- 
Thu 17:30  WNW 20/ 33  31.3 26.1  1003.3    0.2   0.0   0.0   0.0   ----- 
Thu 17:30  WNW 20/ 33  31.3 26.1  1003.3    0.2   0.0  ----   0.0   ----- 
Thu 18:00  WNW 19/ 32  30.8 25.6  1003.2    0.2   0.0   0.0   0.0   ----- 
Thu 18:30  WNW 26/ 35  30.4 25.9  1003.6    0.2   0.0   0.0   0.0   ----- 
Thu 19:00    W 28/ 35  30.2 26.1  1004.0    0.2   0.0   0.0   0.0   ----- 
Thu 19:30    W 26/ 35  30.1 25.8  1004.7    0.2   0.0   0.0   0.0   ----- 
Thu 19:30    W 26/ 35  30.1 25.8  1004.7    0.2   0.0  ----   0.0   ----- 
Thu 19:30    W 26/ 35  30.1 25.8  1004.7    0.2   0.0  ----   0.0   ----- 
Thu 20:00    W 26/ 35  30.0 26.0  1005.1    0.2   0.0   0.0   0.0   ----- 

DALY WATERS AIRSTRIP

Site: 014626
Alt: 209.8m
1km E of DALY WATERS


  Time     Wind        Temp  DP   Baro     Rain since   Rain past  Vis(m), Cloud(base in m), Weather
  local        km/h                         9am  last   hr   10m    
Thu 14:30  WSW 11/ 17  38.2 18.6  1002.2    0.0   0.0   0.0   0.0   ----- 
Thu 15:00  WSW  9/ 15  38.0 18.4  1001.5    0.0   0.0   0.0   0.0   ----- 
Thu 15:30    S  7/ 13  38.3 17.1  1001.2    0.0   0.0   0.0   0.0   ----- 
Thu 16:00   SE 17/ 24  39.5 17.6  1000.6    0.0   0.0   0.0   0.0   ----- 
Thu 16:30  ESE 19/ 28  37.8 16.7  1001.2    0.0   0.0   0.0   0.0   ----- 
Thu 17:00  ESE 15/ 24  37.1 16.6  1001.6    0.0   0.0   0.0   0.0   ----- 
Thu 17:30    E 13/ 20  36.4 18.0  1001.8    0.0   0.0   0.0   0.0   ----- 
Thu 17:30    E 13/ 20  36.4 18.0  1001.8    0.0   0.0  ----   0.0   ----- 
Thu 18:00   NE 13/ 20  35.4 19.3  1002.6    0.0   0.0   0.0   0.0   ----- 
Thu 18:30    N 20/ 32  32.5 20.1  1002.9    0.0   0.0   0.0   0.0   ----- 
Thu 19:00    N 15/ 20  31.2 20.8  1003.0    0.0   0.0   0.0   0.0   ----- 
Thu 19:30    N 11/ 17  30.8 21.3  1003.4    0.0   0.0   0.0   0.0   ----- 
Thu 19:30    N 11/ 17  30.8 21.3  1003.4    0.0   0.0  ----   0.0   ----- 
Thu 19:30    N 11/ 17  30.8 21.3  1003.4    0.0   0.0  ----   0.0   ----- 
Thu 20:00    N  9/ 13  30.4 21.2  1004.2    0.0   0.0   0.0   0.0   ----- 

DARWIN AIRPORT

Site: 014015
Alt: 30.4m
7km NE of DARWIN CBD


  Time     Wind        Temp  DP   Baro     Rain since   Rain past  Vis(m), Cloud(base in m), Weather
  local        km/h                         9am  last   hr   10m    
Thu 14:30    W 24/ 32  31.6 24.0  1003.9    0.2   0.0   0.0   0.0  *10000|FE 810cu BR****ci 
Thu 15:00    W 19/ 28  31.2 23.7  1003.8    0.2   0.0   0.0   0.0  *10000|FE 840cu BR****ci 
Thu 15:30    W 22/ 30  32.6 23.9  1003.7    0.2   0.0   0.0   0.0  *10000|FE 840cu BR****ci 
Thu 16:00  WSW 24/ 30  33.0 23.5  1003.1    0.2   0.0   0.0   0.0  *10000|FE 840cu BR****ci 
Thu 16:30    W 22/ 32  32.9 22.9  1003.1    0.2   0.0   0.0   0.0  *10000|FE 840cu BR****ci 
Thu 16:30    W 22/ 32  32.9 22.9  1003.1    0.2   0.0  ----   0.0  *10000|FE 840cu BR****ci 
Thu 17:00    W 20/ 30  32.7 23.0  1003.0    0.2   0.0   0.0   0.0  *10000|FE 900cu BR****ci 
Thu 17:30    W 26/ 33  32.3 23.2  1002.9    0.2   0.0   0.0   0.0  *10000|FE 900cu BR****ci 
Thu 17:30    W 26/ 33  32.3 23.2  1002.9    0.2   0.0  ----   0.0  *10000|FE 900cu BR****ci 
Thu 18:00    W 24/ 33  32.0 22.5  1003.6    0.2   0.0   0.0   0.0  *10000|FE 900cu SC****ci 
Thu 18:00    W 24/ 33  32.0 22.5  1003.6    0.2   0.0  ----   0.0  *10000|FE 900cu SC****ci 
Thu 18:30    W 22/ 32  31.5 22.9  1004.2    0.2   0.0   0.0   0.0  *10000|FE 780cu SC****ci 
Thu 19:00  WSW 20/ 28  30.8 24.4  1004.6    0.2   0.0   0.0   0.0  *10000|FE 600cu SC****ci 
Thu 19:30  WSW 19/ 26  30.7 24.1  1005.0    0.2   0.0   0.0   0.0  *10000|FE 600cu SC****ci 
Thu 19:30  WSW 19/ 26  30.7 24.1  1005.0    0.2   0.0  ----   0.0  *10000|FE 600cu SC****ci 
Thu 19:30  WSW 19/ 26  30.7 24.1  1005.0    0.2   0.0  ----   0.0  *10000|FE 600cu SC****ci 
Thu 20:00  WSW 19/ 24  30.4 24.4  1005.1    0.2   0.0   0.0   0.0  *10000|FE1050sc SC****ci 

DARWIN NTC AWS

Site: 014072
Alt: 0.0m
1km S of DARWIN CBD


  Time     Wind        Temp  DP   Baro     Rain since   Rain past  Vis(m), Cloud(base in m), Weather
  local        km/h                         9am  last   hr   10m    
Thu 14:30    W 24/ 30  30.1----  1003.1   ----  ----  ----  ----   ----- 
Thu 15:00    W 17/ 24  30.6----  1003.0   ----  ----  ----  ----   ----- 
Thu 15:30    W 19/ 26  31.3----  1002.9   ----  ----  ----  ----   ----- 
Thu 16:00    W 17/ 20  31.7----  1002.4   ----  ----  ----  ----   ----- 
Thu 16:30    W 22/ 33  31.7----  1002.3   ----  ----  ----  ----   ----- 
Thu 17:00    W 22/ 30  31.8----  1002.1   ----  ----  ----  ----   ----- 
Thu 17:30    W 28/ 37  31.7----  1002.1   ----  ----  ----  ----   ----- 
Thu 17:30    W 28/ 37  31.7----  1002.1   ----  ----  ----  ----   ----- 
Thu 18:00    W 28/ 35  31.7----  1002.8   ----  ----  ----  ----   ----- 
Thu 18:30    W 26/ 37  31.2----  1003.5   ----  ----  ----  ----   ----- 
Thu 19:00    W 26/ 33  31.0----  1003.9   ----  ----  ----  ----   ----- 
Thu 19:30    W 24/ 32  30.8----  1004.2   ----  ----  ----  ----   ----- 
Thu 19:30    W 24/ 32  30.8----  1004.2   ----  ----  ----  ----   ----- 
Thu 19:30    W 24/ 32  30.8----  1004.2   ----  ----  ----  ----   ----- 
Thu 20:00    W 20/ 24  30.6----  1004.3   ----  ----  ----  ----   ----- 

DELAMERE WEAPONS RANGE

Site: 014949
Alt: 221.0m
165km WNW of DALY WATERS


  Time     Wind        Temp  DP   Baro     Rain since   Rain past  Vis(m), Cloud(base in m), Weather
  local        km/h                         9am  last   hr   10m    
Thu 14:30  WNW 19/ 32  36.6 19.5  1002.7    0.0   0.0   0.0   0.0   ----- 
Thu 15:00  WNW 19/ 26  36.1 19.5  1002.2    0.0   0.0   0.0   0.0   ----- 
Thu 15:30  WNW 19/ 26  35.8 20.5  1001.1    0.0   0.0   0.0   0.0   ----- 
Thu 16:00  WNW 19/ 28  35.0 20.5  1001.4    0.0   0.0   0.0   0.0   ----- 
Thu 16:30    W 11/ 24  35.6 20.7  1002.7    0.0   0.0   0.0   0.0   -----|SC3000 
Thu 16:40    E 30/ 43  30.8 16.8  1003.8    0.0   0.0  ----   0.0   -----|SC1590 BR2940 
Thu 16:46    E 32/ 50  30.1 18.2  1004.3    0.0   0.0  ----   0.0   -----|SC1650 BR2940 
Thu 16:52   SE 43/ 61  27.1 18.4  1004.9    0.0   0.0  ----   0.0   -----|SC1650 BR1890 OC2940 
Thu 16:53   SE 45/ 70  26.3 18.7  1004.9    0.0   0.0  ----   0.0   -----|BR1650 BR1890 OC2940 
Thu 17:00   SE 48/ 72  23.0 20.5  1005.3    0.4   0.4   0.4   0.4   -----|BR1650 BR2130 OC2880 
Thu 17:05  SSE 32/ 72  22.4 21.0  1005.8    4.4   4.0  ----   4.4   -----|SC 240 BR1650 OC1980 
Thu 17:17  WSW 11/ 28  24.2 22.8  1003.8    8.2   3.8  ----   2.2   -----|SC 300 BR1260 OC1620 
Thu 17:17  WSW 11/ 28  24.2 22.8  1003.8    8.2   0.0  ----   2.2   -----|SC 300 BR1260 OC1620 
Thu 17:30    W 17/ 24  25.0 22.7  1003.2    8.6   0.4   8.6   0.2   -----|SC 420 BR1980 OC2370 
Thu 17:30    W 17/ 24  25.0 22.7  1003.2    8.6   0.0  ----   0.2   -----|SC 420 BR1980 OC2370 
Thu 18:00  WNW 15/ 24  25.6 21.5  1001.8    8.6   0.0   8.2   0.0   -----|SC2760 SC3450 
Thu 18:30   NW  6/  9  26.5 21.5  1002.1    8.6   0.0   0.0   0.0   ----- 
Thu 19:00    N  9/ 15  26.8 21.8  1003.3    8.6   0.0   0.0   0.0   ----- 
Thu 19:30    S 13/ 24  26.3 22.2  1004.7    8.6   0.0   0.0   0.0   -----|BR2490 BR3000 
Thu 19:30    S 13/ 24  26.3 22.2  1004.7    8.6   0.0  ----   0.0   -----|BR2490 BR3000 
Thu 19:30    S 13/ 24  26.3 22.2  1004.7    8.6   0.0  ----   0.0   -----|BR2490 BR3000 
Thu 19:59  SSW 37/ 46  25.0 23.6  1005.9   14.8   6.2  ----   4.4   -----|SC 510 BR1290 OC2340 
Thu 20:00  SSW 37/ 46  24.8 23.6  1006.0   16.0   1.2   7.4   5.4   -----|SC 510 BR1290 OC1500 
Thu 20:03  WSW 30/ 46  24.5 23.5  1006.0   20.4   4.4  ----   9.2   -----|SC 180 BR 510 OC1500 
Thu 20:04  WSW 33/ 56  24.6 21.3  1005.3   21.8   1.4  ----  10.4   -----|SC 180 BR 510 OC1500 

DOUGLAS RIVER RESEARCH FARM

Site: 014901
Alt: 42.8m
55km E of NAUIYU (DALY RIVER)


  Time     Wind        Temp  DP   Baro     Rain since   Rain past  Vis(m), Cloud(base in m), Weather
  local        km/h                         9am  last   hr   10m    
Thu 14:30    W 15/ 24  32.4 24.2  1003.9    0.0   0.0   0.0   0.0   ----- 
Thu 15:00    W 11/ 20  33.0 25.0  1003.1    0.0   0.0   0.0   0.0   ----- 
Thu 15:30  WNW 11/ 15  33.4 24.6  1002.7    0.0   0.0   0.0   0.0   ----- 
Thu 16:00    W 11/ 15  33.6 25.6  1002.3    0.0   0.0   0.0   0.0   ----- 
Thu 16:30    W 13/ 20  34.1 24.7  1001.6    0.0   0.0   0.0   0.0   ----- 
Thu 17:00    W 17/ 26  33.8 24.7  1001.9    0.0   0.0   0.0   0.0   ----- 
Thu 17:30    W 17/ 24  33.0 25.0  1002.8    0.0   0.0   0.0   0.0   ----- 
Thu 17:30    W 17/ 24  33.0 25.0  1002.8    0.0   0.0  ----   0.0   ----- 
Thu 18:00    W 13/ 20  32.5 24.8  1003.2    0.0   0.0   0.0   0.0   ----- 
Thu 18:30    W 15/ 30  32.2 24.5  1003.4    0.0   0.0   0.0   0.0   ----- 
Thu 19:00    W 13/ 19  31.1 24.2  1004.3    0.0   0.0   0.0   0.0   ----- 
Thu 19:30    W  9/ 13  30.4 24.3  1004.6    0.0   0.0   0.0   0.0   ----- 
Thu 19:30    W  9/ 13  30.4 24.3  1004.6    0.0   0.0  ----   0.0   ----- 
Thu 19:30    W  9/ 13  30.4 24.3  1004.6    0.0   0.0  ----   0.0   ----- 
Thu 20:00  WSW 11/ 15  29.9 23.8  1005.7    0.0   0.0   0.0   0.0   ----- 

DUM IN MIRRIE AIRSTRIP

Site: 014277
Alt: 3.5m
55km WSW of DARWIN CBD


  Time     Wind        Temp  DP   Baro     Rain since   Rain past  Vis(m), Cloud(base in m), Weather
  local        km/h                         9am  last   hr   10m    
Thu 14:30  WSW  9/ 24  32.9 25.2  1003.6    0.0   0.0   0.0   0.0   ----- 
Thu 15:00  WSW 11/ 20  32.3 24.9  1003.5    0.0   0.0   0.0   0.0   ----- 
Thu 15:30  WSW  7/ 17  32.4 25.2  1003.4    0.0   0.0   0.0   0.0   ----- 
Thu 16:00    W 11/ 19  32.5 25.3  1003.0    0.0   0.0   0.0   0.0   ----- 
Thu 16:30    W 11/ 20  32.3 25.6  1003.0    0.0   0.0   0.0   0.0   ----- 
Thu 17:00    W 11/ 20  32.0 25.3  1002.9    0.0   0.0   0.0   0.0   ----- 
Thu 17:30    W 15/ 22  31.7 25.3  1003.0    0.0   0.0   0.0   0.0   ----- 
Thu 17:30    W 15/ 22  31.7 25.3  1003.0    0.0   0.0  ----   0.0   ----- 
Thu 18:00    W 17/ 30  31.4 25.5  1003.3    0.0   0.0   0.0   0.0   ----- 
Thu 18:30  WSW 13/ 24  30.9 25.5  1003.9    0.0   0.0   0.0   0.0   ----- 
Thu 19:00    W 15/ 26  30.8 25.4  1004.5    0.0   0.0   0.0   0.0   ----- 
Thu 19:30    W 26/ 41  30.6 25.7  1004.7    0.0   0.0   0.0   0.0   ----- 
Thu 19:30    W 26/ 41  30.6 25.7  1004.7    0.0   0.0  ----   0.0   ----- 
Thu 19:30    W 26/ 41  30.6 25.7  1004.7    0.0   0.0  ----   0.0   ----- 
Thu 20:00  WSW 13/ 30  30.3 25.1  1004.6    0.0   0.0   0.0   0.0   ----- 

GOVE AIRPORT

Site: 014508
Alt: 51.6m
11km SSE of NHULUNBUY (GOVE)


  Time     Wind        Temp  DP   Baro     Rain since   Rain past  Vis(m), Cloud(base in m), Weather
  local        km/h                         9am  last   hr   10m    
Thu 14:30  NNW 39/ 52  32.8 23.3  1003.4    0.2   0.0   0.0   0.0  *10000|FE 720cu SC 780tc BR****ci 
Thu 15:00  NNW 35/ 46  33.1 23.3  1003.0    0.2   0.0   0.0   0.0  *10000|FE 840cu SC 870tc BR****ci 
Thu 15:30  NNW 32/ 43  33.7 23.9  1002.6    0.2   0.0   0.0   0.0  *10000|FE 750cu SC 810tc BR****ci 
Thu 16:00   NW 32/ 45  33.4 23.7  1002.2    0.2   0.0   0.0   0.0  *10000|FE 840cu BR****ci FE 900tc 
Thu 16:30   NW 30/ 43  33.2 23.1  1002.3    0.2   0.0   0.0   0.0   10000 
Thu 17:00   NW 32/ 41  32.8 20.9  1002.5    0.2   0.0   0.0   0.0   10000|SC3450 
Thu 17:30  NNW 33/ 46  31.7 22.7  1002.4    0.2   0.0   0.0   0.0   10000|SC3450 
Thu 17:30  NNW 33/ 46  31.7 22.7  1002.4    0.2   0.0  ----   0.0   10000|SC3450 
Thu 18:00  NNW 32/ 46  30.8 23.6  1002.7    0.2   0.0   0.0   0.0   10000|SC3450 
Thu 18:30  NNW 28/ 39  30.1 24.2  1003.0    0.2   0.0   0.0   0.0   10000|SC3750 
Thu 19:00  NNW 26/ 35  29.5 24.5  1003.2    0.2   0.0   0.0   0.0   10000 
Thu 19:30   NW 20/ 30  29.1 24.8  1003.7    0.2   0.0   0.0   0.0   10000 
Thu 19:30   NW 20/ 30  29.1 24.8  1003.7    0.2   0.0  ----   0.0   10000 
Thu 19:30   NW 20/ 30  29.1 24.8  1003.7    0.2   0.0  ----   0.0   10000 
Thu 20:00   NW 15/ 20  29.1 25.1  1003.8    0.2   0.0   0.0   0.0   10000|SC 630 

GROOTE EYLANDT AIRPORT

Site: 014518
Alt: 13.7m
202km S of NHULUNBUY (GOVE)


  Time     Wind        Temp  DP   Baro     Rain since   Rain past  Vis(m), Cloud(base in m), Weather
  local        km/h                         9am  last   hr   10m    
Thu 14:30    W 13/ 17  30.0 23.9  1001.3    0.6   0.2   0.2   0.0   10000|SC1770 BR2160 BR2640 
Thu 15:00    N 17/ 22  30.0 24.2  1000.9    0.6   0.0   0.2   0.0   10000|SC1650 OC2070 
Thu 15:30   NW 20/ 30  29.8 24.7  1001.0    0.6   0.0   0.0   0.0   10000|SC1530 BR1950 OC2250 
Thu 16:00  WNW 22/ 33  30.7 23.9  1000.9    0.6   0.0   0.0   0.0   10000|SC1530 SC1950 BR2460 
Thu 16:30  WNW 33/ 48  30.9 21.7  1000.7    0.6   0.0   0.0   0.0   10000|BR1770 OC2220 
Thu 16:46  WNW 28/ 48  30.8 21.3  1000.9    0.8   0.2  ----   0.0   10000|OC1770 OC2100 
Thu 17:00  WNW 33/ 54  30.6 21.1  1000.7    0.8   0.0   0.2   0.0   10000|SC1410 OC1740 OC2100 
Thu 17:30  WNW 24/ 35  30.1 22.0   999.8    0.8   0.0   0.2   0.0   10000|SC1470 BR1740 BR2100 
Thu 17:30  WNW 24/ 35  30.1 22.0   999.8    0.8   0.0  ----   0.0   10000|SC1470 BR1740 BR2100 
Thu 18:00  WNW 24/ 33  30.5 21.9  1000.0    0.8   0.0   0.0   0.0   10000|SC1410 SC1680 OC1950 
Thu 18:30    W 22/ 32  30.2 22.9  1000.6    0.8   0.0   0.0   0.0   10000|OC2010 
Thu 19:00    W 24/ 41  29.8 23.7  1001.2    0.8   0.0   0.0   0.0   10000|BR2130 BR2670 
Thu 19:30    W 20/ 35  29.9 22.6  1001.2    0.8   0.0   0.0   0.0   10000|OC2490 
Thu 19:30    W 20/ 35  29.9 22.6  1001.2    0.8   0.0  ----   0.0   10000|OC2490 
Thu 19:30    W 20/ 35  29.9 22.6  1001.2    0.8   0.0  ----   0.0   10000|OC2490 
Thu 20:00    W 20/ 30  30.0 23.7  1001.4    0.8   0.0   0.0   0.0   10000|BR2370 OC2940 

GUNN POINT

Site: 014023
Alt: 25.0m
32km NE of DARWIN CBD


  Time     Wind        Temp  DP   Baro     Rain since   Rain past  Vis(m), Cloud(base in m), Weather
  local        km/h                         9am  last   hr   10m    
Thu 14:30  WSW 19/ 32 --------  1003.7    0.0   0.0   0.0   0.0   ----- 
Thu 15:00    W 17/ 32 --------  1003.8    0.0   0.0   0.0   0.0   ----- 
Thu 15:30    W 19/ 30 --------  1003.5    0.0   0.0   0.0   0.0   ----- 
Thu 16:00    W 17/ 26 --------  1003.1    0.0   0.0   0.0   0.0   ----- 
Thu 16:30    W 13/ 28 --------  1003.2    0.0   0.0   0.0   0.0   ----- 
Thu 17:00    W 20/ 32 --------  1003.0    0.0   0.0   0.0   0.0   ----- 
Thu 17:30    W 19/ 32 --------  1002.8    0.0   0.0   0.0   0.0   ----- 
Thu 17:30    W 19/ 32 --------  1002.8    0.0   0.0  ----   0.0   ----- 
Thu 18:00    W 17/ 30 --------  1003.4    0.0   0.0   0.0   0.0   ----- 
Thu 18:30    W 15/ 26 --------  1003.9    0.0   0.0   0.0   0.0   ----- 
Thu 19:00    W 15/ 30 --------  1004.6    0.0   0.0   0.0   0.0   ----- 
Thu 19:30    W 15/ 28 --------  1004.9    0.0   0.0   0.0   0.0   ----- 
Thu 19:30    W 15/ 28 --------  1004.9    0.0   0.0  ----   0.0   ----- 
Thu 19:30    W 15/ 28 --------  1004.9    0.0   0.0  ----   0.0   ----- 
Thu 20:00  WSW 11/ 26 --------  1005.2    0.0   0.0   0.0   0.0   ----- 

JABIRU AIRPORT

Site: 014198
Alt: 26.5m
1km NW of JABIRU


  Time     Wind        Temp  DP   Baro     Rain since   Rain past  Vis(m), Cloud(base in m), Weather
  local        km/h                         9am  last   hr   10m    
Thu 14:30  WNW 26/ 35  35.5 22.8  1003.2    0.0   0.0   0.0   0.0   10000|SC1290 SC2160 SC2400 
Thu 15:00    W 22/ 35  36.2 22.7  1002.8    0.0   0.0   0.0   0.0   10000 
Thu 15:30   NW 32/ 35  35.6 23.9  1002.4    0.0   0.0   0.0   0.0   10000 
Thu 16:00   NW 22/ 30  35.0 23.7  1002.2    0.0   0.0   0.0   0.0   10000|SC1380 
Thu 16:30   NW 20/ 28  35.3 22.3  1001.9    0.0   0.0   0.0   0.0   10000 
Thu 17:00  NNW 19/ 24  34.8 23.8  1001.5    0.0   0.0   0.0   0.0   10000 
Thu 17:30  NNW 20/ 30  34.3 22.7  1002.2    0.0   0.0   0.0   0.0   10000 
Thu 17:30  NNW 20/ 30  34.3 22.7  1002.2    0.0   0.0  ----   0.0   10000 
Thu 18:00   NW 20/ 32  33.6 22.7  1002.7    0.0   0.0   0.0   0.0   10000 
Thu 18:30   NW 17/ 24  32.9 23.0  1003.4    0.0   0.0   0.0   0.0   10000|SC3150 
Thu 19:00  NNW 11/ 15  31.8 23.1  1003.2    0.0   0.0   0.0   0.0   10000 
Thu 19:30    N  7/  9  31.1 24.0  1004.1    0.0   0.0   0.0   0.0   10000 
Thu 19:30    N  7/  9  31.1 24.0  1004.1    0.0   0.0  ----   0.0   10000 
Thu 19:30    N  7/  9  31.1 24.0  1004.1    0.0   0.0  ----   0.0   10000 
Thu 20:00  NNE  6/  7  30.6 23.5  1004.4    0.0   0.0   0.0   0.0   10000 

KANGAROO FLATS (DEFENCE)

Site: 014982
Alt: 50.0m
37km S of DARWIN


  Time     Wind        Temp  DP   Baro     Rain since   Rain past  Vis(m), Cloud(base in m), Weather
  local        km/h                         9am  last   hr   10m    
Thu 14:30  WSW  9/ 17  33.2 24.1  ------   ----  ----  ----   0.0   ----- 
Thu 15:00   SW  7/ 20  33.5 23.8  ------   ----  ----  ----   0.0   ----- 
Thu 15:30  WSW  7/ 17  33.1 23.1  ------   ----  ----  ----   0.0   ----- 
Thu 16:00  WSW  7/ 15  34.1 24.7  ------   ----  ----  ----   0.0   ----- 
Thu 16:30  WSW  7/ 17  33.1 24.0  ------   ----  ----  ----   0.0   ----- 
Thu 17:00    W  9/ 17  32.7 23.6  ------   ----  ----  ----   0.0   ----- 
Thu 17:30    W  9/ 19  32.9 23.8  ------   ----  ----  ----   0.0   ----- 
Thu 17:30    W  9/ 19  32.9 23.8  ------   ----  ----  ----   0.0   ----- 
Thu 18:00  WSW  6/ 15  32.5 24.5  ------   ----  ----  ----   0.0   ----- 
Thu 18:30  WSW  6/  9  31.6 24.7  ------   ----  ----  ----   0.0   ----- 
Thu 19:00    W  7/ 13  31.0 24.6  ------   ----  ----  ----   0.0   ----- 
Thu 19:30    W  7/ 15  30.5 24.9  ------   ----  ----  ----   0.0   ----- 

Thu 19:30    W  7/ 15  30.5 24.9  ------   ----  ----  ----   0.0   ----- 
Thu 19:30    W  7/ 15  30.5 24.9  ------   ----  ----  ----   0.0   ----- 
Thu 20:00  WSW  7/ 13  30.2 25.3  ------   ----  ----  ----   0.0   ----- 

LAJAMANU AIRPORT

Site: 014829
Alt: 315.6m
101km SSW of KALKARINDJI


  Time     Wind        Temp  DP   Baro     Rain since   Rain past  Vis(m), Cloud(base in m), Weather
  local        km/h                         9am  last   hr   10m    
Thu 14:30  WNW 15/ 26  37.2 14.5  1002.3   ----  ----  ----   0.0   ----- 
Thu 15:00  WNW 13/ 24  36.2 15.3  1001.9   ----  ----  ----   0.0   ----- 
Thu 15:30  WNW 11/ 20  35.1 14.9  1001.9   ----  ----  ----   0.0   ----- 
Thu 16:00    W 17/ 24  33.7 14.7  1001.0   ----  ----  ----   0.0   ----- 
Thu 16:11  WSW 13/ 26  32.5 16.3  1003.4   ----  ----  ----   0.0   ----- 
Thu 16:21   SE 26/ 58  27.3 19.4  1004.5   ----  ----  ----   0.0   ----- 
Thu 16:22   SE 28/ 58  26.4 19.0  1004.2   ----  ----  ----   0.0   ----- 
Thu 16:22   SE 28/ 58  26.4 19.0  1004.2   ----  ----  ----   0.0   ----- 
Thu 16:29   SE 58/ 74  26.2 21.0  1004.3   ----  ----  ----   0.2   ----- 
Thu 16:30   SE 46/ 74  26.0 20.8  1004.4   ----  ----  ----   0.2   ----- 
Thu 16:36    E 39/ 58  25.0 19.6  1004.5   ----  ----  ----   0.2   ----- 
Thu 16:57   SE 11/ 15  24.1 21.2  1005.6   ----  ----  ----   1.4   ----- 
Thu 17:00  SSE 11/ 15  24.2 21.1  1005.5   ----  ----  ----   1.6   ----- 
Thu 17:24   NW 22/ 30  24.9 21.6  1003.5   ----  ----  ----   0.6   ----- 
Thu 17:24   NW 22/ 30  24.9 21.6  1003.5   ----  ----  ----   0.6   ----- 
Thu 17:30    N 17/ 20  25.2 21.5  1002.9   ----  ----  ----   0.2   ----- 
Thu 17:30    N 17/ 20  25.2 21.5  1002.9   ----  ----  ----   0.2   ----- 
Thu 18:00    N 11/ 17  26.6 21.8  1002.4   ----  ----  ----   0.0   ----- 
Thu 18:30  WSW 28/ 43  26.9 21.6  1003.7   ----  ----  ----   0.0   ----- 
Thu 19:00    W  9/ 19  27.7 22.0  1004.7   ----  ----  ----   0.0   ----- 
Thu 19:04  SSW 28/ 65  27.5 20.1  1004.9   ----  ----  ----   0.6   ----- 
Thu 19:30  ESE 32/ 45  27.1 21.4  1005.0   ----  ----  ----   0.0   ----- 
Thu 19:30  ESE 32/ 45  27.1 21.4  1005.0   ----  ----  ----   0.0   ----- 
Thu 19:30  ESE 32/ 45  27.1 21.4  1005.0   ----  ----  ----   0.0   ----- 
Thu 20:00    N 13/ 17  28.0 20.8  1003.4   ----  ----  ----   0.0   ----- 

MANINGRIDA AIRPORT

Site: 014405
Alt: 28.1m
160km ENE of JABIRU


  Time     Wind        Temp  DP   Baro     Rain since   Rain past  Vis(m), Cloud(base in m), Weather
  local        km/h                         9am  last   hr   10m    
Thu 14:30    N 26/ 35  31.8 24.1  1003.1    0.0   0.0   0.0   0.0   10000|SC1470 SC1770 BR2160 
Thu 15:00    N 28/ 37  32.2 25.0  1002.5    0.0   0.0   0.0   0.0   10000|SC1470 BR1710 BR2010 
Thu 15:30    N 28/ 33  32.0 25.3  1002.3    0.0   0.0   0.0   0.0   10000|SC1890 BR2190 
Thu 16:00    N 28/ 37  31.8 25.2  1002.0    0.0   0.0   0.0   0.0   10000|SC1560 SC1860 
Thu 16:30    N 26/ 32  32.1 25.9  1001.9    0.0   0.0   0.0   0.0   10000|SC1440 BR1770 
Thu 17:00  NNW 30/ 37  31.8 26.1  1001.7    0.0   0.0   0.0   0.0   10000|SC1440 SC1890 
Thu 17:30   NW 26/ 37  31.3 25.6  1001.6    0.0   0.0   0.0   0.0   10000|BR1440 BR1710 
Thu 17:30   NW 26/ 37  31.3 25.6  1001.6    0.0   0.0  ----   0.0   10000|BR1440 BR1710 
Thu 18:00   NW 22/ 30  31.4 25.5  1002.1    0.0   0.0   0.0   0.0   10000|BR1320 BR1650 
Thu 18:30   NW 19/ 28  31.2 25.5  1002.5    0.0   0.0   0.0   0.0   10000|SC1320 SC1590 
Thu 19:00   NW 13/ 17  30.7 25.8  1003.0    0.0   0.0   0.0   0.0   10000 
Thu 19:30   NW 13/ 19  30.7 25.5  1003.2    0.0   0.0   0.0   0.0   10000 
Thu 19:30   NW 13/ 19  30.7 25.5  1003.2    0.0   0.0  ----   0.0   10000 
Thu 19:30   NW 13/ 19  30.7 25.5  1003.2    0.0   0.0  ----   0.0   10000 
Thu 20:00  WNW 13/ 20  30.4 25.9  1003.9    0.0   0.0   0.0   0.0   10000 

MCARTHUR RIVER MINE AIRPORT

Site: 014704
Alt: 40.0m
48km SSW of BORROLOOLA


  Time     Wind        Temp  DP   Baro     Rain since   Rain past  Vis(m), Cloud(base in m), Weather
  local        km/h                         9am  last   hr   10m    
Thu 14:30   SE 19/ 26  26.0 24.4  1003.3    3.0   1.6   2.8   0.6   10000|SC 870 BR1350 OC1530 
Thu 15:00   SE 13/ 22  26.5 24.5  1002.9    3.0   0.0   1.6   0.0   10000|SC 960 
Thu 15:30   SE 20/ 32  27.0 23.7  1002.4    3.0   0.0   0.0   0.0   10000|SC1020 
Thu 16:00  SSE 17/ 22  27.1 24.2  1002.4    3.0   0.0   0.0   0.0   10000 
Thu 16:30  SSE 20/ 30  27.4 23.8  1002.3    3.0   0.0   0.0   0.0   10000 
Thu 17:00  SSE 19/ 26  27.6 24.2  1002.1    3.0   0.0   0.0   0.0   10000 
Thu 17:30   SE 20/ 37  27.9 23.5  1001.6    3.0   0.0   0.0   0.0   10000 
Thu 17:30   SE 20/ 37  27.9 23.5  1001.6    3.0   0.0  ----   0.0   10000 
Thu 18:00  ESE 20/ 32  28.2 23.1  1001.5    3.0   0.0   0.0   0.0   10000 
Thu 18:30   SE 19/ 32  27.8 22.7  1001.2    3.0   0.0   0.0   0.0   10000 
Thu 19:00  ESE 20/ 30  27.5 22.9  1001.5    3.0   0.0   0.0   0.0   10000 
Thu 19:30   SE 19/ 30  27.6 22.8  1002.4    3.0   0.0   0.0   0.0   10000|SC 930 
Thu 19:30   SE 19/ 30  27.6 22.8  1002.4    3.0   0.0  ----   0.0   10000|SC 930 
Thu 19:30   SE 19/ 30  27.6 22.8  1002.4    3.0   0.0  ----   0.0   10000|SC 930 
Thu 20:00   SE 15/ 20  27.3 22.9  1002.5    3.0   0.0   0.0   0.0   10000 

MCCLUER ISLAND

Site: 014274
Alt: 1.4m
180km N of JABIRU


  Time     Wind        Temp  DP   Baro     Rain since   Rain past  Vis(m), Cloud(base in m), Weather
  local        km/h                         9am  last   hr   10m    
Thu 14:30    W 30/ 35  31.8 26.6  1004.5    0.0   0.0   0.0   0.0   ----- 
Thu 15:00    W 35/ 41  31.7 26.3  1004.1    0.0   0.0   0.0   0.0   ----- 
Thu 15:30    W 33/ 39  31.6 26.6  1003.8    0.0   0.0   0.0   0.0   ----- 
Thu 16:00    W 33/ 39  31.4 26.4  1003.6    0.0   0.0   0.0   0.0   ----- 
Thu 16:30    W 35/ 41  31.4 26.9  1003.7    0.0   0.0   0.0   0.0   ----- 
Thu 17:00    W 32/ 35  31.0 26.7  1003.4    0.0   0.0   0.0   0.0   ----- 
Thu 17:30    W 32/ 37  30.6 26.7  1003.3    0.0   0.0   0.0   0.0   ----- 
Thu 17:30    W 32/ 37  30.6 26.7  1003.3    0.0   0.0  ----   0.0   ----- 
Thu 18:00  WNW 30/ 37  30.3 26.5  1002.9    0.0   0.0   0.0   0.0   ----- 
Thu 18:30    W 32/ 37  30.0 26.2  1003.1    0.0   0.0   0.0   0.0   ----- 
Thu 19:00    W 33/ 39  29.8 25.8  1003.4    0.0   0.0   0.0   0.0   ----- 
Thu 19:30    W 30/ 33  29.6 26.4  1004.4    0.0   0.0   0.0   0.0   ----- 
Thu 19:30    W 30/ 33  29.6 26.4  1004.4    0.0   0.0  ----   0.0   ----- 
Thu 19:30    W 30/ 33  29.6 26.4  1004.4    0.0   0.0  ----   0.0   ----- 
Thu 20:00    W 30/ 33  29.7 26.5  1004.7    0.0   0.0   0.0   0.0   ----- 

MIDDLE POINT

Site: 014041
Alt: 14.1m
52km ESE of DARWIN CBD


  Time     Wind        Temp  DP   Baro     Rain since   Rain past  Vis(m), Cloud(base in m), Weather
  local        km/h                         9am  last   hr   10m    
Thu 14:30  WSW 19/ 28  34.7 24.6  1003.0    0.0   0.0   0.0   0.0   ----- 
Thu 15:00  WNW 19/ 28  34.4 24.0  1002.8    0.0   0.0   0.0   0.0   ----- 
Thu 15:30   SW 13/ 20  34.7 24.3  1002.7    0.0   0.0   0.0   0.0   ----- 
Thu 16:00    W 13/ 22  35.2 24.5  1002.2    0.0   0.0   0.0   0.0   ----- 
Thu 16:30  WSW 20/ 28  34.7 23.1  1002.0    0.0   0.0   0.0   0.0   ----- 
Thu 17:00  WSW 19/ 24  34.6 23.6  1002.0    0.0   0.0   0.0   0.0   ----- 
Thu 17:30  WSW 17/ 22  34.3 23.9  1002.1    0.0   0.0   0.0   0.0   ----- 
Thu 17:30  WSW 17/ 22  34.3 23.9  1002.1    0.0   0.0  ----   0.0   ----- 
Thu 18:00    W 15/ 22  33.9 23.9  1002.7    0.0   0.0   0.0   0.0   ----- 
Thu 18:30  WSW 17/ 20  32.8 23.4  1003.4    0.0   0.0   0.0   0.0   ----- 
Thu 19:00  WSW 13/ 19  31.7 24.0  1003.9    0.0   0.0   0.0   0.0   ----- 
Thu 19:30    W  9/ 11  30.5 24.4  1004.2    0.0   0.0   0.0   0.0   ----- 
Thu 19:30    W  9/ 11  30.5 24.4  1004.2    0.0   0.0  ----   0.0   ----- 
Thu 19:30    W  9/ 11  30.5 24.4  1004.2    0.0   0.0  ----   0.0   ----- 
Thu 20:00    W  7/  9  29.9 25.0  1004.7    0.0   0.0   0.0   0.0   ----- 

MILINGIMBI AIRPORT

Site: 014404
Alt: 15.0m
205km W of NHULUNBUY (GOVE)


  Time     Wind        Temp  DP   Baro     Rain since   Rain past  Vis(m), Cloud(base in m), Weather
  local        km/h                         9am  last   hr   10m    
Thu 14:30   NW 20/ 30  33.9 23.3  1003.5    0.0   0.0   0.0   0.0   ----- 
Thu 15:00   NW 19/ 30  32.2 23.4  1003.0    0.0   0.0   0.0   0.0   ----- 
Thu 15:30   NW 19/ 28  32.6 24.1  1002.8    0.0   0.0   0.0   0.0   ----- 
Thu 16:00   NW 13/ 24  32.9 24.9  1002.4    0.0   0.0   0.0   0.0   ----- 
Thu 16:30  NNW 17/ 28  32.4 24.7  1002.2    0.0   0.0   0.0   0.0   ----- 
Thu 17:00   NW 19/ 30  31.9 25.0  1002.3    0.0   0.0   0.0   0.0   ----- 
Thu 17:30   NW 19/ 33  31.0 25.4  1002.2    0.0   0.0   0.0   0.0   ----- 
Thu 17:30   NW 19/ 33  31.0 25.4  1002.2    0.0   0.0  ----   0.0   ----- 
Thu 18:00   NW 19/ 30  30.8 25.2  1002.4    0.0   0.0   0.0   0.0   ----- 
Thu 18:30   NW 17/ 28  30.5 24.9  1002.7    0.0   0.0   0.0   0.0   ----- 
Thu 19:00  WNW 15/ 26  30.3 25.4  1003.3    0.0   0.0   0.0   0.0   ----- 
Thu 19:30   NW 17/ 26  30.2 25.9  1003.4    0.0   0.0   0.0   0.0   ----- 
Thu 19:30   NW 17/ 26  30.2 25.9  1003.4    0.0   0.0  ----   0.0   ----- 
Thu 19:30   NW 17/ 26  30.2 25.9  1003.4    0.0   0.0  ----   0.0   ----- 
Thu 20:00   NW 13/ 24  30.0 26.2  1004.0    0.0   0.0   0.0   0.0   ----- 

MOUNT BUNDEY NORTH (DEFENCE)

Site: 014983
Alt: 83.0m
122km WNW of DARWIN


  Time     Wind        Temp  DP   Baro     Rain since   Rain past  Vis(m), Cloud(base in m), Weather
  local        km/h                         9am  last   hr   10m    
Thu 14:30   NW  9/ 17  33.7 23.1  ------    0.0   0.0   0.0   0.0   ----- 
Thu 15:00  WNW  7/  9  34.1 23.5  ------    0.0   0.0   0.0   0.0   ----- 
Thu 15:30    W  9/ 20  35.5 23.8  ------    0.0   0.0   0.0   0.0   ----- 
Thu 16:00    W 11/ 19  34.7 24.6  ------    0.0   0.0   0.0   0.0   ----- 
Thu 16:30    W  9/ 17  34.3 23.9  ------    0.0   0.0   0.0   0.0   ----- 
Thu 17:00  WNW  7/ 15  34.5 24.4  ------    0.0   0.0   0.0   0.0   ----- 
Thu 17:30    W  9/ 17  33.7 24.0  ------    0.0   0.0   0.0   0.0   ----- 
Thu 17:30    W  9/ 17  33.7 24.0  ------    0.0   0.0  ----   0.0   ----- 
Thu 18:00    W  7/ 13  33.4 23.7  ------    0.0   0.0   0.0   0.0   ----- 
Thu 18:30    W  6/ 13  32.7 24.2  ------    0.0   0.0   0.0   0.0   ----- 
Thu 19:00    W  6/  7  31.9 24.7  ------    0.0   0.0   0.0   0.0   ----- 
Thu 19:30    W  6/  9  31.5 24.6  ------    0.0   0.0   0.0   0.0   ----- 
Thu 19:30    W  6/  9  31.5 24.6  ------    0.0   0.0  ----   0.0   ----- 
Thu 19:30    W  6/  9  31.5 24.6  ------    0.0   0.0  ----   0.0   ----- 
Thu 20:00  WSW  6/  9  31.5 24.1  ------    0.0   0.0   0.0   0.0   ----- 

MOUNT BUNDEY SOUTH (DEFENCE)

Site: 014984
Alt: 44.0m
130km SE of DARWIN


  Time     Wind        Temp  DP   Baro     Rain since   Rain past  Vis(m), Cloud(base in m), Weather
  local        km/h                         9am  last   hr   10m    
Thu 14:30  WNW 11/ 20  34.8 24.1  1004.7    0.2   0.0   0.0   0.0   ----- 
Thu 15:00  WNW  9/ 15  34.9 24.2  1004.3    0.2   0.0   0.0   0.0   ----- 
Thu 15:30  WNW 11/ 24  35.5 23.5  1003.8    0.2   0.0   0.0   0.0   ----- 
Thu 16:00   NW 13/ 22  35.3 24.6  1003.6    0.2   0.0   0.0   0.0   ----- 
Thu 16:30  WNW  7/ 15  35.3 25.5  1003.4    0.2   0.0   0.0   0.0   ----- 
Thu 17:00  WNW  9/ 17  34.4 25.2  1003.2    0.2   0.0   0.0   0.0   ----- 
Thu 17:30    W  6/ 11  34.2 24.7  1004.0    0.2   0.0   0.0   0.0   ----- 
Thu 17:30    W  6/ 11  34.2 24.7  1004.0    0.2   0.0  ----   0.0   ----- 
Thu 18:00    W  6/  9  33.7 24.8  1004.4    0.2   0.0   0.0   0.0   ----- 
Thu 18:30   SW  6/ 11  32.6 23.5  1005.1    0.2   0.0   0.0   0.0   ----- 
Thu 19:00   SW  6/ 11  31.8 23.9  1005.2    0.2   0.0   0.0   0.0   ----- 
Thu 19:30   SW  4/  7  31.4 24.8  1005.8    0.2   0.0   0.0   0.0   ----- 
Thu 19:30   SW  4/  7  31.4 24.8  1005.8    0.2   0.0  ----   0.0   ----- 
Thu 19:30   SW  4/  7  31.4 24.8  1005.8    0.2   0.0  ----   0.0   ----- 
Thu 20:00    W  6/  9  30.9 25.0  1006.1    0.2   0.0   0.0   0.0   ----- 

MURGANELLA AIRSTRIP

Site: 014309
Alt: 9.5m
124km N of JABIRU


  Time     Wind        Temp  DP   Baro     Rain since   Rain past  Vis(m), Cloud(base in m), Weather
  local        km/h                         9am  last   hr   10m    
Thu 14:30    W 19/ 39  33.9 24.5  1004.0    0.0   0.0   0.0   0.0   ----- 
Thu 15:00    W 13/ 24  33.1 24.0  1003.5    0.0   0.0   0.0   0.0   ----- 
Thu 15:30    W 11/ 19  34.3 24.8  1003.2    0.0   0.0   0.0   0.0   ----- 
Thu 16:00  WSW 17/ 26  34.2 24.5  1003.2    0.0   0.0   0.0   0.0   ----- 
Thu 16:30    W 11/ 20  34.2 24.2  1003.0    0.0   0.0   0.0   0.0   ----- 
Thu 17:00  WNW 11/ 19  34.0 24.6  1002.6    0.0   0.0   0.0   0.0   ----- 
Thu 17:30   NW 13/ 26  32.6 25.9  1002.4    0.0   0.0   0.0   0.0   ----- 
Thu 17:30   NW 13/ 26  32.6 25.9  1002.4    0.0   0.0  ----   0.0   ----- 
Thu 18:00  NNW 11/ 22  31.9 26.2  1002.5    0.0   0.0   0.0   0.0   ----- 
Thu 18:30   NW  9/ 19  30.9 25.7  1003.0    0.0   0.0   0.0   0.0   ----- 
Thu 19:00   NW  7/ 11  30.4 25.5  1003.7    0.0   0.0   0.0   0.0   ----- 
Thu 19:30   NW  9/ 19  30.3 25.1  1004.0    0.0   0.0   0.0   0.0   ----- 
Thu 19:30   NW  9/ 19  30.3 25.1  1004.0    0.0   0.0  ----   0.0   ----- 
Thu 19:30   NW  9/ 19  30.3 25.1  1004.0    0.0   0.0  ----   0.0   ----- 
Thu 20:00    W  4/  6  30.1 24.9  1004.5    0.0   0.0   0.0   0.0   ----- 

NGAYAWILI

Site: 014517
Alt: 8.1m
133km W of NHULUNBUY (GOVE)


  Time     Wind        Temp  DP   Baro     Rain since   Rain past  Vis(m), Cloud(base in m), Weather
  local        km/h                         9am  last   hr   10m    
Thu 14:30  WNW 35/ 41  31.6 25.0  1003.9    0.0   0.0   0.0   0.0   ----- 
Thu 15:00   NW 33/ 41  31.2 24.6  1003.1    0.0   0.0   0.0   0.0   ----- 
Thu 15:30   NW 35/ 41  31.1 25.2  1003.1    0.0   0.0   0.0   0.0   ----- 
Thu 16:00   NW 35/ 43  30.6 25.2  1002.6    0.0   0.0   0.0   0.0   ----- 
Thu 16:30   NW 35/ 43  30.5 25.3  1002.5    0.0   0.0   0.0   0.0   ----- 
Thu 17:00   NW 37/ 43  30.6 25.7  1002.5    0.0   0.0   0.0   0.0   ----- 
Thu 17:30   NW 37/ 45  30.3 25.8  1002.3    0.0   0.0   0.0   0.0   ----- 
Thu 17:30   NW 37/ 45  30.3 25.8  1002.3    0.0   0.0  ----   0.0   ----- 
Thu 18:00   NW 37/ 43  30.4 26.3  1002.3    0.0   0.0   0.0   0.0   ----- 
Thu 18:30   NW 37/ 45  30.2 26.4  1002.6    0.0   0.0   0.0   0.0   ----- 
Thu 19:00   NW 39/ 46  30.3 26.0  1002.8    0.0   0.0   0.0   0.0   ----- 
Thu 19:30   NW 39/ 48  30.4 26.3  1003.1    0.0   0.0   0.0   0.0   ----- 
Thu 19:30   NW 39/ 48  30.4 26.3  1003.1    0.0   0.0  ----   0.0   ----- 
Thu 19:30   NW 39/ 48  30.4 26.3  1003.1    0.0   0.0  ----   0.0   ----- 
Thu 20:00   NW 43/ 50  30.5 26.9  1003.3    0.0   0.0   0.0   0.0   ----- 

NGUKURR AIRPORT

Site: 014299
Alt: 14.5m
224km NW of BORROLOOLA


  Time     Wind        Temp  DP   Baro     Rain since   Rain past  Vis(m), Cloud(base in m), Weather
  local        km/h                         9am  last   hr   10m    
Thu 14:30  SSW  7/ 13  30.9 23.5  1002.1    0.0   0.0   0.0   0.0   ----- 
Thu 15:00    S  9/ 19  31.0 23.6  1002.4    0.0   0.0   0.0   0.0   ----- 
Thu 15:30  SSW  6/  7  27.0 25.8  1002.1    3.2   3.2   3.2   0.0   ----- 
Thu 16:00  WSW  9/ 13  28.0 27.3  1002.7    3.2   0.0   3.2   0.0   ----- 
Thu 16:30    W  9/ 15  28.4 25.2  1002.2    3.2   0.0   0.0   0.0   ----- 
Thu 17:00    W 11/ 19  27.7 24.1  1001.8    3.2   0.0   0.0   0.0   ----- 
Thu 17:30    W 11/ 19  27.6 24.6  1002.4    3.2   0.0   0.0   0.0   ----- 
Thu 17:30    W 11/ 19  27.6 24.6  1002.4    3.2   0.0  ----   0.0   ----- 
Thu 18:00    W  9/ 17  27.5 24.1  1002.3    3.2   0.0   0.0   0.0   ----- 
Thu 18:30  WNW  7/  9  27.3 24.2  1002.2    3.2   0.0   0.0   0.0   ----- 
Thu 19:00  WNW  7/ 13  27.3 24.0  1002.4    3.2   0.0   0.0   0.0   ----- 
Thu 19:30    W  7/ 13  27.4 24.1  1002.6    3.2   0.0   0.0   0.0   ----- 
Thu 19:30    W  7/ 13  27.4 24.1  1002.6    3.2   0.0  ----   0.0   ----- 
Thu 19:30    W  7/ 13  27.4 24.1  1002.6    3.2   0.0  ----   0.0   ----- 
Thu 20:00    W  9/ 15  27.2 24.1  1002.5    3.2   0.0   0.0   0.0   ----- 

NOONAMAH AIRSTRIP

Site: 014314
Alt: 17.5m
km of


  Time     Wind        Temp  DP   Baro     Rain since   Rain past  Vis(m), Cloud(base in m), Weather
  local        km/h                         9am  last   hr   10m    
Thu 14:30    W 17/ 24  32.8 23.7  1003.1    0.0   0.0   0.0   0.0   ----- 
Thu 15:00    W 13/ 24  33.2 24.7  1002.8    0.0   0.0   0.0   0.0   ----- 
Thu 15:30    W 11/ 20  33.7 25.1  1002.7    0.0   0.0   0.0   0.0   ----- 
Thu 16:00    W 13/ 20  34.0 24.8  1002.4    0.0   0.0   0.0   0.0   ----- 
Thu 16:30    W  7/ 13  33.8 24.9  1002.1    0.0   0.0   0.0   0.0   ----- 
Thu 17:00  WSW 13/ 20  34.1 22.5  1002.0    0.0   0.0   0.0   0.0   ----- 
Thu 17:30  WSW 13/ 19  34.0 22.7  1002.1    0.0   0.0   0.0   0.0   ----- 
Thu 17:30  WSW 13/ 19  34.0 22.7  1002.1    0.0   0.0  ----   0.0   ----- 
Thu 18:00    W  9/ 19  33.1 25.1  1002.7    0.0   0.0   0.0   0.0   ----- 
Thu 18:30    W 13/ 22  32.0 24.3  1003.4    0.0   0.0   0.0   0.0   ----- 
Thu 19:00    W  7/ 13  31.7 24.3  1003.8    0.0   0.0   0.0   0.0   ----- 
Thu 19:30    W  9/ 15  31.3 23.9  1004.3    0.0   0.0   0.0   0.0   ----- 
Thu 19:30    W  9/ 15  31.3 23.9  1004.3    0.0   0.0  ----   0.0   ----- 
Thu 19:30    W  9/ 15  31.3 23.9  1004.3    0.0   0.0  ----   0.0   ----- 
Thu 20:00    W  7/ 13  30.8 24.0  1004.5    0.0   0.0   0.0   0.0   ----- 

OENPELLI AIRPORT

Site: 014310
Alt: 7.5m
39km NNE of JABIRU


  Time     Wind        Temp  DP   Baro     Rain since   Rain past  Vis(m), Cloud(base in m), Weather
  local        km/h                         9am  last   hr   10m    
Thu 14:30    W 19/ 26  33.1 25.6  1003.5    0.0   0.0   0.0   0.0   ----- 
Thu 15:00    W 19/ 28  31.7 25.3  1003.2    0.0   0.0   0.0   0.0   ----- 
Thu 15:30  WNW  7/ 15  33.1 26.1  1002.9    0.0   0.0   0.0   0.0   ----- 
Thu 16:00  WNW 13/ 30  32.3 24.1  1002.7    0.0   0.0   0.0   0.0   ----- 
Thu 16:30  WNW 17/ 28  34.3 23.0  1002.6    0.0   0.0   0.0   0.0   ----- 
Thu 17:00  WNW 19/ 28  33.8 24.4  1002.1    0.0   0.0   0.0   0.0   ----- 
Thu 17:30  WNW 15/ 22  33.6 25.3  1002.1    0.0   0.0   0.0   0.0   ----- 
Thu 17:30  WNW 15/ 22  33.6 25.3  1002.1    0.0   0.0  ----   0.0   ----- 
Thu 18:00  WNW 15/ 24  31.9 25.7  1003.1    0.0   0.0   0.0   0.0   ----- 
Thu 18:30    W 11/ 19  31.2 26.2  1003.5    0.0   0.0   0.0   0.0   ----- 
Thu 19:00  WSW  6/  9  30.6 26.1  1003.8    0.0   0.0   0.0   0.0   ----- 
Thu 19:30    W  4/  7  30.3 26.2  1004.1    0.0   0.0   0.0   0.0   ----- 
Thu 19:30    W  4/  7  30.3 26.2  1004.1    0.0   0.0  ----   0.0   ----- 
Thu 19:30    W  4/  7  30.3 26.2  1004.1    0.0   0.0  ----   0.0   ----- 
Thu 20:00  WNW  2/  6  29.7 26.1  1004.7    0.0   0.0   0.0   0.0   ----- 

PIRLANGIMPI AIRPORT

Site: 014142
Alt: 18.3m
28km W of PULARUMPI (MELVILLE/BATHURST ISLANDS)


  Time     Wind        Temp  DP   Baro     Rain since   Rain past  Vis(m), Cloud(base in m), Weather
  local        km/h                         9am  last   hr   10m    
Thu 14:30    W 13/ 24  33.6 22.1  1004.3    0.0   0.0   0.0   0.0   ----- 
Thu 15:00    W  7/ 17  34.1 23.2  1004.0    0.0   0.0   0.0   0.0   ----- 
Thu 15:30    W  9/ 19  33.1 24.0  1003.7    0.0   0.0   0.0   0.0   ----- 
Thu 16:00  WNW  9/ 20  32.5 24.3  1003.7    0.0   0.0   0.0   0.0   ----- 
Thu 16:30  WNW 13/ 20  31.9 24.2  1003.8    0.0   0.0   0.0   0.0   ----- 
Thu 17:00    W  9/ 19  31.8 23.9  1003.8    0.0   0.0   0.0   0.0   ----- 
Thu 17:30    W  9/ 20  30.4 23.3  1004.4    0.0   0.0   0.0   0.0   ----- 
Thu 17:30    W  9/ 20  30.4 23.3  1004.4    0.0   0.0  ----   0.0   ----- 
Thu 18:00    W  9/ 26  30.2 24.1  1004.6    0.0   0.0   0.0   0.0   ----- 
Thu 18:30  WSW  7/ 20  29.8 24.0  1004.5    0.0   0.0   0.0   0.0   ----- 
Thu 19:00    W  6/ 15  29.7 24.1  1004.9    0.0   0.0   0.0   0.0   ----- 
Thu 19:30    W  6/ 11  29.5 23.9  1005.1    0.0   0.0   0.0   0.0   ----- 
Thu 19:30    W  6/ 11  29.5 23.9  1005.1    0.0   0.0  ----   0.0   ----- 
Thu 19:30    W  6/ 11  29.5 23.9  1005.1    0.0   0.0  ----   0.0   ----- 
Thu 20:00  WSW  7/ 15  29.3 24.0  1005.9    0.0   0.0   0.0   0.0   ----- 

POINT STUART

Site: 014254
Alt: 1.0m
115km ENE of DARWIN CBD


  Time     Wind        Temp  DP   Baro     Rain since   Rain past  Vis(m), Cloud(base in m), Weather
  local        km/h                         9am  last   hr   10m    
Thu 14:30  WNW 33/ 45  33.5 24.9  1003.0    0.2   0.0   0.0   0.0   ----- 
Thu 15:00  WNW 33/ 43  33.0 24.7  1002.6    0.2   0.0   0.0   0.0   ----- 
Thu 15:30    W 32/ 41  33.2 24.7  1002.5    0.2   0.0   0.0   0.0   ----- 
Thu 16:00  WNW 33/ 43  33.9 24.5  1002.4    0.2   0.0   0.0   0.0   ----- 
Thu 16:30  WNW 32/ 41  33.6 25.3  1002.2    0.2   0.0   0.0   0.0   ----- 
Thu 17:00   NW 32/ 41  33.4 25.9  1002.0    0.2   0.0   0.0   0.0   ----- 
Thu 17:30  WNW 32/ 43  32.8 24.8  1001.6    0.2   0.0   0.0   0.0   ----- 
Thu 17:30  WNW 32/ 43  32.8 24.8  1001.6    0.2   0.0  ----   0.0   ----- 
Thu 18:00  WNW 30/ 35  32.2 26.5  1002.5    0.2   0.0   0.0   0.0   ----- 
Thu 18:30  WNW 30/ 39  31.3 27.0  1002.8    0.2   0.0   0.0   0.0   ----- 
Thu 19:00    W 30/ 39  31.0 26.0  1003.4    0.2   0.0   0.0   0.0   ----- 
Thu 19:30    W 32/ 39  30.8 26.1  1003.6    0.2   0.0   0.0   0.0   ----- 
Thu 19:30    W 32/ 39  30.8 26.1  1003.6    0.2   0.0  ----   0.0   ----- 
Thu 19:30    W 32/ 39  30.8 26.1  1003.6    0.2   0.0  ----   0.0   ----- 
Thu 20:00    W 32/ 43  30.8 25.8  1004.3    0.2   0.0   0.0   0.0   ----- 

PORT KEATS AIRPORT

Site: 014948
Alt: 28.0m
137km WSW of NAUIYU (DALY RIVER)


  Time     Wind        Temp  DP   Baro     Rain since   Rain past  Vis(m), Cloud(base in m), Weather
  local        km/h                         9am  last   hr   10m    
Thu 14:30    W 20/ 39  31.7 24.8  1003.9    0.2   0.0   0.0   0.0   ----- 
Thu 15:00    W 22/ 41  31.5 23.3  1003.7    0.2   0.0   0.0   0.0   ----- 
Thu 15:30  WNW 22/ 45  31.9 24.0  1003.7    0.2   0.0   0.0   0.0   ----- 
Thu 16:00    W 13/ 28  32.3 24.9  1003.7    0.2   0.0   0.0   0.0   ----- 
Thu 16:30  WNW 19/ 32  31.3 24.2  1003.1    0.2   0.0   0.0   0.0   ----- 
Thu 17:00  WNW 20/ 32  31.7 24.0  1002.9    0.2   0.0   0.0   0.0   ----- 
Thu 17:30   NW 20/ 32  30.9 24.3  1003.1    0.2   0.0   0.0   0.0   ----- 
Thu 17:30   NW 20/ 32  30.9 24.3  1003.1    0.2   0.0  ----   0.0   ----- 
Thu 18:00  WNW 17/ 28  30.8 24.9  1003.4    0.2   0.0   0.0   0.0   ----- 
Thu 18:30  WNW 15/ 28  30.7 24.8  1003.5    0.2   0.0   0.0   0.0   ----- 
Thu 19:00   NW 13/ 20  30.1 24.9  1003.5    0.2   0.0   0.0   0.0   ----- 
Thu 19:30   NW 13/ 20  29.8 25.5  1003.6    0.2   0.0   0.0   0.0   ----- 
Thu 19:30   NW 13/ 20  29.8 25.5  1003.6    0.2   0.0  ----   0.0   ----- 
Thu 19:30   NW 13/ 20  29.8 25.5  1003.6    0.2   0.0  ----   0.0   ----- 
Thu 20:00   NW 11/ 20  29.7 25.2  1003.9    0.2   0.0   0.0   0.0   ----- 

TINDAL RAAF

Site: 014932
Alt: 133.6m
98km SE of PINE CREEK


  Time     Wind        Temp  DP   Baro     Rain since   Rain past  Vis(m), Cloud(base in m), Weather
  local        km/h                         9am  last   hr   10m    
Thu 14:30    W 19/ 30  35.4 24.0  1003.2    0.0   0.0   0.0   0.0   10000 
Thu 15:00    W 19/ 30  34.7 22.7  1002.7    0.0   0.0   0.0   0.0   10000|SC1350 
Thu 15:30  WSW 19/ 22  34.8 23.8  1002.1    0.0   0.0   0.0   0.0   10000 
Thu 16:00    W 17/ 24  35.2 23.5  1001.3    0.0   0.0   0.0   0.0   10000|SC1440 
Thu 16:30    W 19/ 26  34.9 22.6  1001.7    0.0   0.0   0.0   0.0   10000 
Thu 17:00    W 20/ 26  34.7 23.1  1002.3    0.0   0.0   0.0   0.0   10000 
Thu 17:30  WSW 17/ 24  33.8 22.9  1003.3    0.0   0.0   0.0   0.0   10000|SC3300 
Thu 17:30  WSW 17/ 24  33.8 22.9  1003.3    0.0   0.0  ----   0.0   10000|SC3300 
Thu 18:00    W 17/ 24  33.5 21.6  1003.1    0.0   0.0   0.0   0.0   10000|BR3300 
Thu 18:30    W 15/ 20  33.0 21.8  1002.4    0.0   0.0   0.0   0.0   10000 
Thu 19:00   NW  7/  9  32.2 22.6  1002.8    0.0   0.0   0.0   0.0   10000 
Thu 19:30    W  7/  9  31.7 23.8  1003.5    0.0   0.0   0.0   0.0   10000 
Thu 19:30    W  7/  9  31.7 23.8  1003.5    0.0   0.0  ----   0.0   10000 
Thu 19:30    W  7/  9  31.7 23.8  1003.5    0.0   0.0  ----   0.0   10000 
Thu 20:00    W 11/ 20  31.5 22.8  1004.3    0.0   0.0   0.0   0.0   10000|SC1290 BR3450 

VICTORIA RIVER DOWNS

Site: 014825
Alt: 88.5m
117km N of KALKARINDJI


  Time     Wind        Temp  DP   Baro     Rain since   Rain past  Vis(m), Cloud(base in m), Weather
  local        km/h                         9am  last   hr   10m    
Thu 14:30    W 13/ 20  37.6 19.5  1001.7    0.0   0.0   0.0   0.0   ----- 
Thu 15:00    W 15/ 30  38.2 20.0  1001.0    0.0   0.0   0.0   0.0   ----- 
Thu 15:30   NW 17/ 28  38.0 19.4  1001.1    0.0   0.0   0.0   0.0   ----- 
Thu 16:00  WNW 20/ 30  38.6 20.8  1000.2    0.0   0.0   0.0   0.0   ----- 
Thu 16:30    W 24/ 32  38.3 19.2   999.5    0.0   0.0   0.0   0.0   ----- 
Thu 17:00  WSW 15/ 30  38.2 19.6  1000.3    0.0   0.0   0.0   0.0   ----- 
Thu 17:30  WSW 13/ 24  37.7 19.6  1000.6    0.0   0.0   0.0   0.0   ----- 
Thu 17:30  WSW 13/ 24  37.7 19.6  1000.6    0.0   0.0  ----   0.0   ----- 
Thu 18:00    W 15/ 30  37.3 19.7  1001.2    0.0   0.0   0.0   0.0   ----- 
Thu 18:30  WNW  9/ 17  37.1 20.4  1002.5    0.0   0.0   0.0   0.0   ----- 
Thu 18:35    E 28/ 50  31.2 15.2  1003.9    0.0   0.0  ----   0.0   ----- 
Thu 18:36    E 28/ 50  31.2 15.2  1003.9    0.0   0.0  ----   0.0   ----- 
Thu 18:45  ENE 39/ 76  28.9 16.1  1003.9    0.0   0.0  ----   0.0   ----- 
Thu 18:46  ENE 39/ 76  28.9 16.1  1003.9    0.0   0.0  ----   0.0   ----- 
Thu 19:00  ENE 43/ 63  26.8 17.0  1003.8    0.0   0.0   0.0   0.0   ----- 
Thu 19:06  NNE 33/ 50  26.0 17.1  1002.6    0.0   0.0  ----   0.0   ----- 
Thu 19:15   NE 28/ 46  26.0 18.4  1002.4    0.0   0.0  ----   0.0   ----- 
Thu 19:16   NE 28/ 46  26.0 18.4  1002.4    0.0   0.0  ----   0.0   ----- 
Thu 19:30   NE 28/ 37  26.3 20.2  1003.8    2.0   2.0   2.0   2.0   ----- 
Thu 19:30   NE 28/ 37  26.3 20.2  1003.8    2.0   0.0  ----   2.0   ----- 
Thu 19:30   NE 28/ 37  26.3 20.2  1003.8    2.0   0.0  ----   2.0   ----- 
Thu 19:38  ESE 22/ 39  26.4 19.3  1006.1    2.0   0.0  ----   0.0   ----- 
Thu 19:38  ESE 22/ 39  26.4 19.3  1006.1    2.0   0.0  ----   0.0   ----- 
Thu 19:38  ESE 22/ 39  26.4 19.3  1006.1    2.0   0.0  ----   0.0   ----- 
Thu 19:38  ESE 22/ 39  26.4 19.3  1006.1    2.0   0.0  ----   0.0   ----- 
Thu 19:39   SE 24/ 39  26.4 19.3  1006.1    2.0   0.0  ----   0.0   ----- 
Thu 19:41   SE 28/ 50  26.7 19.6  1006.4    2.0   0.0  ----   0.0   ----- 
Thu 19:42   SE 28/ 56  27.3 18.6  1006.5    2.0   0.0  ----   0.0   ----- 
Thu 19:45    E 43/ 59  26.9 19.0  1005.4    2.2   0.2  ----   0.2   ----- 
Thu 19:46    E 41/ 59  26.1 19.0  1005.1    2.6   0.4  ----   0.6   ----- 
Thu 19:47    E 41/ 59  26.1 19.0  1005.1    2.6   0.0  ----   0.6   ----- 
Thu 20:00    E 41/ 58  23.9 20.8  1005.9    9.2   6.6   9.2   4.2   ----- 
Thu 20:08  ENE 39/ 58  23.9 21.2  1006.9   10.2   0.0   0.0   1.2   ----- 
Thu 20:11  ENE 35/ 52  23.8 21.3  1007.1   10.2   0.0   0.0   1.0   ----- 
Thu 20:13  ENE 33/ 52  23.7 21.2  1007.2   10.4   0.0   0.0   0.8   ----- 

WARRUWI AIRPORT

Site: 014401
Alt: 19.2m
124km NNE of JABIRU


  Time     Wind        Temp  DP   Baro     Rain since   Rain past  Vis(m), Cloud(base in m), Weather
  local        km/h                         9am  last   hr   10m    
Thu 14:30    W 28/ 39  34.0 24.8  1004.3    0.2   0.0   0.0   0.0   ----- 
Thu 15:00    W 26/ 37  34.0 24.8  1003.9    0.2   0.0   0.0   0.0   ----- 
Thu 15:30    W 20/ 30  34.0 25.7  1003.4    0.2   0.0   0.0   0.0   ----- 
Thu 16:00    W 20/ 30  33.9 25.3  1003.5    0.2   0.0   0.0   0.0   ----- 
Thu 16:30  NNW 11/ 24  32.9 26.7  1003.4    0.2   0.0   0.0   0.0   ----- 
Thu 17:00   NW 13/ 24  32.4 26.9  1003.2    0.2   0.0   0.0   0.0   ----- 
Thu 17:30  NNW 15/ 28  31.5 26.7  1002.8    0.2   0.0   0.0   0.0   ----- 
Thu 17:30  NNW 15/ 28  31.5 26.7  1002.8    0.2   0.0  ----   0.0   ----- 
Thu 18:00   NW 17/ 26  31.4 27.1  1002.9    0.2   0.0   0.0   0.0   ----- 
Thu 18:30   NW 17/ 28  30.8 26.7  1003.3    0.2   0.0   0.0   0.0   ----- 
Thu 19:00   NW 17/ 28  30.6 26.3  1003.9    0.2   0.0   0.0   0.0   ----- 
Thu 19:30   NW 11/ 22  30.4 26.6  1004.4    0.2   0.0   0.0   0.0   ----- 
Thu 19:30   NW 11/ 22  30.4 26.6  1004.4    0.2   0.0  ----   0.0   ----- 
Thu 19:30   NW 11/ 22  30.4 26.6  1004.4    0.2   0.0  ----   0.0   ----- 
Thu 20:00  WNW 15/ 30  30.5 25.8  1004.7    0.2   0.0   0.0   0.0   -----